createdAt,value
2022-12-22T00:00:43.381Z,89.53
2022-12-22T00:05:07.145Z,68.63
2022-12-22T00:09:29.709Z,71.70
2022-12-22T00:13:50.930Z,68.60
2022-12-22T00:18:13.163Z,77.13
2022-12-22T00:22:39.224Z,64.73
2022-12-22T00:27:02.479Z,87.00
2022-12-22T00:31:23.937Z,69.07
2022-12-22T00:35:45.224Z,76.87
2022-12-22T00:40:06.652Z,69.83
2022-12-22T00:44:27.630Z,77.97
2022-12-22T00:48:50.484Z,69.17
2022-12-22T00:53:11.059Z,70.17
2022-12-22T00:57:38.762Z,79.90
2022-12-22T01:02:26.786Z,71.43
2022-12-22T01:06:53.317Z,69.17
2022-12-22T01:11:14.171Z,59.80
2022-12-22T01:15:37.322Z,64.90
2022-12-22T01:19:58.003Z,64.20
2022-12-22T01:24:20.108Z,65.27
2022-12-22T01:28:41.165Z,65.80
2022-12-22T01:33:01.807Z,63.77
2022-12-22T01:37:22.913Z,57.03
2022-12-22T01:41:46.097Z,61.83
2022-12-22T01:46:07.830Z,73.93
2022-12-22T01:50:28.452Z,72.13
2022-12-22T01:54:49.390Z,60.43
2022-12-22T01:59:14.522Z,69.47
2022-12-22T02:03:36.024Z,84.77
2022-12-22T02:08:16.099Z,79.30
2022-12-22T02:12:44.293Z,80.90
2022-12-22T02:17:12.667Z,61.40
2022-12-22T02:21:39.747Z,62.70
2022-12-22T02:26:08.748Z,78.70
2022-12-22T02:30:32.128Z,64.13
2022-12-22T02:34:53.026Z,58.97
2022-12-22T02:39:26.371Z,79.07
2022-12-22T02:44:03.734Z,59.97
2022-12-22T02:48:26.689Z,60.90
2022-12-22T02:52:54.007Z,66.70
2022-12-22T02:57:15.314Z,60.97
2022-12-22T03:01:36.389Z,55.40
2022-12-22T03:05:57.552Z,62.53
2022-12-22T03:10:19.866Z,62.53
2022-12-22T03:14:40.912Z,56.23
2022-12-22T03:19:02.068Z,82.10
2022-12-22T03:23:24.626Z,64.93
2022-12-22T03:27:29.276Z,73.10
2022-12-22T03:31:32.709Z,46.07
2022-12-22T03:35:35.994Z,62.17
2022-12-22T03:39:39.684Z,56.13
2022-12-22T03:44:02.031Z,69.33
2022-12-22T03:48:05.762Z,65.53
2022-12-22T03:52:09.041Z,56.90
2022-12-22T03:56:12.464Z,55.47
2022-12-22T04:00:18.256Z,69.73
2022-12-22T04:04:23.797Z,61.83
2022-12-22T04:08:27.082Z,57.83
2022-12-22T04:12:47.713Z,72.43
2022-12-22T04:16:52.736Z,60.77
2022-12-22T04:21:29.691Z,64.40
2022-12-22T04:25:33.078Z,58.57
2022-12-22T04:29:36.290Z,69.07
2022-12-22T04:33:41.090Z,69.50
2022-12-22T04:37:44.411Z,57.40
2022-12-22T04:41:47.728Z,50.00
2022-12-22T04:45:54.573Z,52.53
2022-12-22T04:49:59.955Z,54.57
2022-12-22T04:54:03.232Z,44.93
2022-12-22T04:58:06.730Z,40.73
2022-12-22T05:02:10.917Z,54.50
2022-12-22T05:06:16.018Z,45.47
2022-12-22T05:10:19.354Z,47.50
2022-12-22T05:14:22.716Z,32.10
2022-12-22T05:18:25.944Z,47.87
2022-12-22T05:22:30.526Z,48.27
2022-12-22T05:26:33.798Z,47.23
2022-12-22T05:30:37.229Z,43.20
2022-12-22T05:34:40.599Z,45.23
2022-12-22T05:38:45.752Z,37.60
2022-12-22T05:42:48.983Z,38.03
2022-12-22T05:46:53.247Z,43.90
2022-12-22T05:50:56.667Z,33.20
2022-12-22T05:55:01.389Z,38.37
2022-12-22T05:59:07.645Z,24.07
2022-12-22T06:03:11.226Z,37.57
2022-12-22T06:07:14.580Z,25.57
2022-12-22T06:11:19.963Z,39.73
2022-12-22T06:15:23.204Z,27.43
2022-12-22T06:19:28.078Z,34.70
2022-12-22T06:23:32.345Z,37.17
2022-12-22T06:27:37.228Z,25.90
2022-12-22T06:31:41.003Z,37.00
2022-12-22T06:35:44.589Z,37.57
2022-12-22T06:39:48.403Z,22.07
2022-12-22T06:43:54.316Z,25.53
2022-12-22T06:47:57.689Z,33.07
2022-12-22T06:52:01.252Z,30.53
2022-12-22T06:56:04.532Z,34.30
2022-12-22T07:00:11.097Z,36.40
2022-12-22T07:04:19.864Z,36.47
2022-12-22T07:08:23.378Z,39.23
2022-12-22T07:12:26.717Z,31.47
2022-12-22T07:16:31.338Z,42.90
2022-12-22T07:20:35.128Z,41.83
2022-12-22T07:24:38.414Z,43.90
2022-12-22T07:28:43.314Z,37.00
2022-12-22T07:32:48.015Z,44.23
2022-12-22T07:36:52.456Z,40.43
2022-12-22T07:41:04.487Z,46.07
2022-12-22T07:45:09.098Z,46.50
2022-12-22T07:49:32.132Z,41.90
2022-12-22T07:53:36.052Z,42.77
2022-12-22T07:57:39.640Z,39.90
2022-12-22T08:01:43.564Z,41.37
2022-12-22T08:05:48.550Z,48.13
2022-12-22T08:10:01.074Z,42.30
2022-12-22T08:14:04.441Z,40.80
2022-12-22T08:18:07.896Z,43.87
2022-12-22T08:22:12.964Z,41.13
2022-12-22T08:26:19.471Z,41.27
2022-12-22T08:30:25.100Z,40.73
2022-12-22T08:34:53.229Z,46.57
2022-12-22T08:39:06.324Z,35.60
2022-12-22T08:43:11.453Z,34.17
2022-12-22T08:47:18.686Z,37.03
2022-12-22T08:51:22.869Z,31.07
2022-12-22T08:55:32.397Z,37.63
2022-12-22T08:59:36.270Z,27.70
2022-12-22T09:03:40.098Z,27.77
2022-12-22T09:07:43.729Z,29.17
2022-12-22T09:11:50.004Z,36.03
2022-12-22T09:15:54.481Z,27.40
2022-12-22T09:20:17.972Z,26.53
2022-12-22T09:24:22.066Z,26.00
2022-12-22T09:28:26.936Z,29.40
2022-12-22T09:32:32.516Z,27.00
2022-12-22T09:36:36.092Z,28.30
2022-12-22T09:40:50.609Z,28.87
2022-12-22T09:44:56.918Z,30.27
2022-12-22T09:49:13.911Z,29.17
2022-12-22T09:53:26.743Z,30.33
2022-12-22T09:57:32.540Z,30.20
2022-12-22T10:02:06.482Z,26.47
2022-12-22T10:07:26.640Z,33.70
2022-12-22T10:11:28.133Z,37.23
2022-12-22T10:15:49.873Z,37.93
2022-12-22T10:20:08.594Z,22.57
2022-12-22T10:24:20.519Z,25.83
2022-12-22T10:28:30.608Z,26.70
2022-12-22T10:32:49.591Z,20.93
2022-12-22T10:36:59.392Z,24.90
2022-12-22T10:41:06.372Z,21.90
2022-12-22T10:45:19.371Z,23.17
2022-12-22T10:49:25.547Z,28.87
2022-12-22T10:53:50.670Z,25.57
2022-12-22T10:58:07.453Z,29.03
2022-12-22T11:02:31.265Z,27.60
2022-12-22T11:06:35.022Z,30.73
2022-12-22T11:10:45.178Z,28.87
2022-12-22T11:14:57.885Z,24.80
2022-12-22T11:19:13.293Z,21.13
2022-12-22T11:23:24.124Z,22.30
2022-12-22T11:27:45.741Z,22.70
2022-12-22T11:32:01.678Z,25.77
2022-12-22T11:36:07.338Z,23.30
2022-12-22T11:40:22.670Z,35.70
2022-12-22T11:44:41.229Z,39.53
2022-12-22T11:49:14.798Z,39.13
2022-12-22T11:53:39.806Z,40.53
2022-12-22T11:57:56.534Z,37.27
2022-12-22T12:02:21.043Z,42.30
2022-12-22T12:06:57.509Z,41.17
2022-12-22T12:11:18.361Z,35.30
2022-12-22T12:15:32.736Z,39.83
2022-12-22T12:19:53.882Z,46.83
2022-12-22T12:24:36.957Z,42.50
2022-12-22T12:28:54.954Z,41.40
2022-12-22T12:33:03.028Z,40.30
2022-12-22T12:37:20.244Z,39.87
2022-12-22T12:41:35.284Z,41.00
2022-12-22T12:45:41.342Z,37.60
2022-12-22T12:50:05.841Z,42.00
2022-12-22T12:54:40.023Z,38.57
2022-12-22T12:59:05.285Z,36.37
2022-12-22T13:03:25.289Z,38.27
2022-12-22T13:08:14.496Z,35.43
2022-12-22T13:12:41.204Z,34.17
2022-12-22T13:16:47.266Z,30.63
2022-12-22T13:21:12.344Z,34.50
2022-12-22T13:25:20.916Z,34.50
2022-12-22T13:29:46.029Z,32.33
2022-12-22T13:33:59.979Z,37.30
2022-12-22T13:38:03.938Z,30.10
2022-12-22T13:42:09.007Z,32.47
2022-12-22T13:46:13.974Z,32.07
2022-12-22T13:50:24.440Z,33.30
2022-12-22T13:54:33.266Z,35.40
2022-12-22T13:58:40.337Z,32.43
2022-12-22T14:02:46.482Z,36.70
2022-12-22T14:06:50.000Z,35.53
2022-12-22T14:10:55.350Z,30.93
2022-12-22T14:15:01.356Z,37.83
2022-12-22T14:19:06.799Z,33.40
2022-12-22T14:23:21.021Z,38.13
2022-12-22T14:27:34.348Z,39.23
2022-12-22T14:31:53.061Z,39.20
2022-12-22T14:36:16.407Z,39.87
2022-12-22T14:40:31.573Z,37.87
2022-12-22T14:44:44.652Z,38.47
2022-12-22T14:48:48.820Z,41.43
2022-12-22T14:52:57.211Z,28.97
2022-12-22T14:57:03.728Z,25.30
2022-12-22T15:01:17.763Z,20.63
2022-12-22T15:05:28.560Z,26.27
2022-12-22T15:10:13.272Z,24.97
2022-12-22T15:13:57.624Z,17.93
2022-12-22T15:18:04.125Z,20.73
2022-12-22T15:22:09.158Z,18.73
2022-12-22T15:26:13.816Z,20.60
2022-12-22T15:30:19.306Z,17.90
2022-12-22T15:34:26.000Z,19.83
2022-12-22T15:38:35.068Z,14.13
2022-12-22T15:42:43.242Z,21.83
2022-12-22T15:46:52.753Z,18.43
2022-12-22T15:50:57.260Z,16.10
2022-12-22T15:55:01.889Z,17.43
2022-12-22T15:59:06.943Z,16.40
2022-12-22T16:03:13.421Z,18.07
2022-12-22T16:07:17.167Z,26.43
2022-12-22T16:11:20.782Z,23.10
2022-12-22T16:15:26.059Z,23.33
2022-12-22T16:19:29.690Z,27.93
2022-12-22T16:23:33.482Z,32.03
2022-12-22T17:02:35.589Z,29.90
2022-12-22T17:06:40.100Z,38.10
2022-12-22T17:10:43.786Z,32.53
2022-12-22T17:14:48.027Z,37.93
2022-12-22T17:18:52.878Z,35.80
2022-12-22T17:22:58.754Z,30.67
2022-12-22T17:27:06.849Z,31.07
2022-12-22T17:31:16.335Z,27.50
2022-12-22T17:35:24.840Z,29.90
2022-12-22T17:39:28.875Z,31.93
2022-12-22T17:43:32.512Z,39.23
2022-12-22T17:47:42.355Z,29.47
2022-12-22T17:51:48.374Z,32.40
2022-12-22T17:56:09.052Z,36.73
2022-12-22T18:00:19.405Z,34.67
2022-12-22T18:04:22.822Z,38.93
2022-12-22T18:08:27.852Z,30.93
2022-12-22T18:12:31.221Z,44.13
2022-12-22T18:16:36.913Z,35.60
2022-12-22T18:20:40.539Z,30.33
2022-12-22T18:24:45.756Z,35.27
2022-12-22T18:28:50.517Z,30.87
2022-12-22T18:32:55.309Z,34.00
2022-12-22T18:36:59.481Z,37.77
2022-12-22T18:41:04.356Z,37.40
2022-12-22T18:45:11.211Z,33.30
2022-12-22T18:49:15.338Z,35.03
2022-12-22T18:53:31.273Z,35.00
2022-12-22T18:57:36.021Z,33.97
2022-12-22T19:01:39.827Z,37.60
2022-12-22T19:05:44.894Z,46.13
2022-12-22T19:09:49.887Z,34.60
2022-12-22T19:14:28.529Z,32.60
2022-12-22T19:18:34.120Z,35.57
2022-12-22T19:22:40.838Z,35.00
2022-12-22T19:26:45.884Z,50.27
2022-12-22T19:31:00.785Z,33.43
2022-12-22T19:35:08.453Z,36.37
2022-12-22T19:39:29.802Z,30.87
2022-12-22T19:43:35.195Z,31.70
2022-12-22T19:47:39.807Z,28.27
2022-12-22T19:51:44.722Z,38.00
2022-12-22T19:55:52.579Z,30.97
2022-12-22T19:59:56.669Z,31.40
2022-12-22T20:04:02.112Z,40.40
2022-12-22T20:08:09.394Z,33.63
2022-12-22T20:12:28.433Z,26.20
2022-12-22T20:16:36.271Z,29.40
2022-12-22T20:20:43.119Z,27.77
2022-12-22T20:24:53.841Z,30.43
2022-12-22T20:29:00.994Z,24.63
2022-12-22T20:33:09.199Z,27.47
2022-12-22T20:37:23.666Z,31.23
2022-12-22T20:41:35.550Z,29.40
2022-12-22T20:45:42.231Z,30.40
2022-12-22T20:49:46.909Z,30.80
2022-12-22T20:53:50.726Z,30.10
2022-12-22T20:57:56.795Z,33.13
2022-12-22T21:02:01.137Z,41.53
2022-12-22T21:06:23.535Z,34.90
2022-12-22T21:10:27.519Z,37.27
2022-12-22T21:14:35.789Z,37.53
2022-12-22T21:18:40.641Z,37.57
2022-12-22T21:22:45.164Z,35.30
2022-12-22T21:26:53.716Z,36.30
2022-12-22T21:30:57.374Z,33.57
2022-12-22T21:35:07.971Z,33.90
2022-12-22T21:39:20.315Z,28.60
2022-12-22T21:43:23.940Z,28.73
2022-12-22T21:47:29.427Z,36.00
2022-12-22T21:51:34.378Z,30.83
2022-12-22T21:55:40.681Z,30.00
2022-12-22T21:59:44.316Z,32.87
2022-12-22T22:03:47.662Z,32.53
2022-12-22T22:07:54.507Z,32.07
2022-12-22T22:12:15.339Z,31.17
2022-12-22T22:16:19.262Z,36.40
2022-12-22T22:20:25.870Z,30.03
2022-12-22T22:24:31.931Z,29.63
2022-12-22T22:28:36.912Z,26.27
2022-12-22T22:37:18.258Z,24.37
2022-12-22T22:41:23.484Z,25.33
2022-12-22T22:45:28.213Z,23.63
2022-12-22T22:49:32.132Z,26.83
2022-12-22T22:53:36.728Z,20.77
2022-12-22T22:57:42.633Z,27.13
2022-12-22T23:01:46.364Z,23.27
2022-12-22T23:05:49.764Z,23.27
2022-12-22T23:09:54.214Z,20.13
2022-12-22T23:14:00.006Z,25.87
2022-12-22T23:18:03.439Z,21.50
2022-12-22T23:22:07.017Z,15.23
2022-12-22T23:26:11.167Z,25.40
2022-12-22T23:30:16.758Z,20.60
2022-12-22T23:34:20.223Z,17.40
2022-12-22T23:38:23.847Z,16.40
2022-12-22T23:42:33.410Z,19.33
2022-12-22T23:46:38.233Z,15.30
2022-12-22T23:50:47.736Z,17.10
2022-12-22T23:54:51.201Z,20.30
2022-12-22T23:58:55.359Z,23.40
